LIRS Airport Information

Runway Information
Runway 03 Length 9823 ft width 148 ft
Elevation 14 ft Threshold 317 ft Heading 31
Runway 21 Length 9823 ft Width 148 ft
Elevation 15 ft Threshold 0 ft Heading 211
Runway 03R Length 7729 ft width 80 ft
Elevation 0 ft Threshold 0 ft Heading 31
Runway 21L Length 7729 ft Width 80 ft
Elevation 0 ft Threshold 0 ft Heading 211
Airport Frequencies
Type APP Name APP Frequency 122.1 MHZ
Type GND Name GND Frequency 28.035 MHZ
Type TWR Name TWR Frequency 122.1 MHZ
Airport Navaids
Type TACAN Name Grosseto Frequency 109100 KHZ
Type NDB Name Grosseto Frequency 406 KHZ
Airport Weather Information & NOTAM
ADDS - METARS form results

(0400 UTC 18 May 2022)
Data provider http://aviationweather.gov/metar/data/
 
Forecast for: LIRS (GROSSETO (IT-AFB, IT)
Text: TAF LIRS 180200Z 1803/1812 03006KT CAVOK
Forecast period: 0300 to 1200 UTC 18 May 2022
Forecast type: FROM: standard forecast or significant change
Winds: from the NNE (30 degrees) at 7 MPH (6 knots; 3.1 m/s)
Visibility: 6 or more miles (10+ km)
Ceiling: unknown
Clouds: missing
Weather: NSW  (no significant weather)